sensor_id;sensor_type;location;lat;lon;timestamp;pressure;altitude;pressure_sealevel;temperature;humidity
52927;BME280;40783;49.710;8.842;2023-02-12T00:00:04;101125.69;;;3.88;100.00
52927;BME280;40783;49.710;8.842;2023-02-12T00:02:29;101123.84;;;3.90;100.00
52927;BME280;40783;49.710;8.842;2023-02-12T00:04:55;101123.00;;;3.90;100.00
52927;BME280;40783;49.710;8.842;2023-02-12T00:07:24;101125.56;;;3.91;100.00
52927;BME280;40783;49.710;8.842;2023-02-12T00:09:52;101113.00;;;3.96;100.00
52927;BME280;40783;49.710;8.842;2023-02-12T00:12:21;101113.25;;;3.90;100.00
52927;BME280;40783;49.710;8.842;2023-02-12T00:14:49;101109.56;;;3.94;100.00
52927;BME280;40783;49.710;8.842;2023-02-12T00:17:17;101109.41;;;3.97;100.00
52927;BME280;40783;49.710;8.842;2023-02-12T00:19:42;101112.88;;;3.99;100.00
52927;BME280;40783;49.710;8.842;2023-02-12T00:22:09;101121.59;;;4.01;100.00
52927;BME280;40783;49.710;8.842;2023-02-12T00:24:34;101117.28;;;3.99;100.00
52927;BME280;40783;49.710;8.842;2023-02-12T00:27:00;101118.28;;;3.96;100.00
52927;BME280;40783;49.710;8.842;2023-02-12T00:29:25;101114.72;;;3.97;100.00
52927;BME280;40783;49.710;8.842;2023-02-12T00:31:50;101132.31;;;3.98;100.00
52927;BME280;40783;49.710;8.842;2023-02-12T00:34:18;101126.03;;;4.01;100.00
52927;BME280;40783;49.710;8.842;2023-02-12T00:36:43;101115.44;;;4.01;100.00
52927;BME280;40783;49.710;8.842;2023-02-12T00:39:08;101121.59;;;4.01;100.00
52927;BME280;40783;49.710;8.842;2023-02-12T00:41:33;101118.94;;;4.01;100.00
52927;BME280;40783;49.710;8.842;2023-02-12T00:43:59;101127.81;;;4.00;100.00
52927;BME280;40783;49.710;8.842;2023-02-12T00:46:24;101127.81;;;4.00;100.00
52927;BME280;40783;49.710;8.842;2023-02-12T00:48:49;101125.09;;;4.02;100.00
52927;BME280;40783;49.710;8.842;2023-02-12T00:51:17;101129.41;;;4.05;100.00
52927;BME280;40783;49.710;8.842;2023-02-12T00:53:45;101126.69;;;4.06;100.00
52927;BME280;40783;49.710;8.842;2023-02-12T00:56:10;101132.06;;;4.05;100.00
52927;BME280;40783;49.710;8.842;2023-02-12T00:58:35;101130.38;;;4.02;100.00
52927;BME280;40783;49.710;8.842;2023-02-12T01:01:00;101132.31;;;3.98;100.00
52927;BME280;40783;49.710;8.842;2023-02-12T01:03:26;101125.31;;;3.97;100.00
52927;BME280;40783;49.710;8.842;2023-02-12T01:05:56;101129.69;;;3.98;100.00
52927;BME280;40783;49.710;8.842;2023-02-12T01:08:23;101128.75;;;3.99;100.00
52927;BME280;40783;49.710;8.842;2023-02-12T01:10:55;101128.78;;;3.98;100.00
52927;BME280;40783;49.710;8.842;2023-02-12T01:13:23;101128.75;;;3.99;100.00
52927;BME280;40783;49.710;8.842;2023-02-12T01:15:49;101119.16;;;3.97;100.00
52927;BME280;40783;49.710;8.842;2023-02-12T01:18:14;101118.28;;;3.96;100.00
52927;BME280;40783;49.710;8.842;2023-02-12T01:20:42;101118.44;;;3.93;100.00
52927;BME280;40783;49.710;8.842;2023-02-12T01:23:07;101116.69;;;3.92;100.00
52927;BME280;40783;49.710;8.842;2023-02-12T01:25:32;101128.88;;;3.96;100.00
52927;BME280;40783;49.710;8.842;2023-02-12T01:28:02;101113.78;;;3.98;100.00
52927;BME280;40783;49.710;8.842;2023-02-12T01:30:30;101114.59;;;4.00;100.00
52927;BME280;40783;49.710;8.842;2023-02-12T01:32:55;101116.56;;;3.95;100.00
52927;BME280;40783;49.710;8.842;2023-02-12T01:35:20;101113.94;;;3.95;100.00
52927;BME280;40783;49.710;8.842;2023-02-12T01:37:45;101112.00;;;3.99;100.00
52927;BME280;40783;49.710;8.842;2023-02-12T01:40:13;101116.22;;;4.03;100.00
52927;BME280;40783;49.710;8.842;2023-02-12T01:42:41;101105.75;;;4.00;100.00
52927;BME280;40783;49.710;8.842;2023-02-12T01:47:45;101111.22;;;3.97;100.00
52927;BME280;40783;49.710;8.842;2023-02-12T01:50:14;101110.63;;;3.90;100.00
52927;BME280;40783;49.710;8.842;2023-02-12T01:52:45;101116.84;;;3.89;100.00
52927;BME280;40783;49.710;8.842;2023-02-12T01:55:12;101101.75;;;3.91;100.00
52927;BME280;40783;49.710;8.842;2023-02-12T01:57:38;101106.13;;;3.92;100.00
52927;BME280;40783;49.710;8.842;2023-02-12T02:00:08;101110.56;;;3.92;100.00
52927;BME280;40783;49.710;8.842;2023-02-12T02:02:34;101104.41;;;3.91;100.00
52927;BME280;40783;49.710;8.842;2023-02-12T02:05:03;101113.13;;;3.93;100.00
52927;BME280;40783;49.710;8.842;2023-02-12T02:07:30;101110.47;;;3.93;100.00
52927;BME280;40783;49.710;8.842;2023-02-12T02:09:55;101107.84;;;3.93;100.00
52927;BME280;40783;49.710;8.842;2023-02-12T02:12:24;101100.69;;;3.95;100.00
52927;BME280;40783;49.710;8.842;2023-02-12T02:15:10;101097.25;;;3.93;100.00
52927;BME280;40783;49.710;8.842;2023-02-12T02:20:32;101097.25;;;3.93;100.00
52927;BME280;40783;49.710;8.842;2023-02-12T02:39:06;101106.25;;;3.89;100.00
52927;BME280;40783;49.710;8.842;2023-02-12T02:41:42;101102.66;;;3.90;100.00
52927;BME280;40783;49.710;8.842;2023-02-12T02:44:13;101106.25;;;3.89;100.00
52927;BME280;40783;49.710;8.842;2023-02-12T02:46:49;101104.41;;;3.91;100.00
52927;BME280;40783;49.710;8.842;2023-02-12T02:49:18;101106.25;;;3.89;100.00
52927;BME280;40783;49.710;8.842;2023-02-12T02:51:46;101100.94;;;3.89;100.00
52927;BME280;40783;49.710;8.842;2023-02-12T02:54:18;101099.03;;;3.93;100.00
52927;BME280;40783;49.710;8.842;2023-02-12T02:56:46;101105.28;;;3.92;100.00
52927;BME280;40783;49.710;8.842;2023-02-12T02:59:14;101107.97;;;3.90;100.00
52927;BME280;40783;49.710;8.842;2023-02-12T03:04:11;101108.84;;;3.91;100.00
52927;BME280;40783;49.710;8.842;2023-02-12T03:06:42;101108.06;;;3.89;100.00
52927;BME280;40783;49.710;8.842;2023-02-12T03:09:17;101113.41;;;3.87;100.00
52927;BME280;40783;49.710;8.842;2023-02-12T03:11:44;101115.91;;;3.90;100.00
52927;BME280;40783;49.710;8.842;2023-02-12T03:14:17;101107.13;;;3.90;100.00
52927;BME280;40783;49.710;8.842;2023-02-12T03:16:48;101107.00;;;3.93;100.00
52927;BME280;40783;49.710;8.842;2023-02-12T03:19:16;101104.53;;;3.88;100.00
52927;BME280;40783;49.710;8.842;2023-02-12T03:26:51;101117.75;;;3.88;100.00
52927;BME280;40783;49.710;8.842;2023-02-12T03:29:18;101107.97;;;3.90;100.00
52927;BME280;40783;49.710;8.842;2023-02-12T03:31:58;101108.84;;;3.91;100.00
52927;BME280;40783;49.710;8.842;2023-02-12T03:37:13;101120.41;;;3.88;100.00
52927;BME280;40783;49.710;8.842;2023-02-12T03:39:45;101113.41;;;3.87;100.00
52927;BME280;40783;49.710;8.842;2023-02-12T03:44:46;101115.91;;;3.90;100.00
52927;BME280;40783;49.710;8.842;2023-02-12T03:52:25;101116.00;;;3.89;100.00
52927;BME280;40783;49.710;8.842;2023-02-12T03:54:52;101114.97;;;3.91;100.00
52927;BME280;40783;49.710;8.842;2023-02-12T03:57:21;101113.06;;;3.95;100.00
52927;BME280;40783;49.710;8.842;2023-02-12T03:59:48;101112.28;;;3.93;100.00
52927;BME280;40783;49.710;8.842;2023-02-12T04:02:14;101117.50;;;3.94;100.00
52927;BME280;40783;49.710;8.842;2023-02-12T04:04:40;101113.25;;;3.90;100.00
52927;BME280;40783;49.710;8.842;2023-02-12T04:07:05;101115.91;;;3.90;100.00
52927;BME280;40783;49.710;8.842;2023-02-12T04:09:31;101122.00;;;3.92;100.00
52927;BME280;40783;49.710;8.842;2023-02-12T04:16:57;101129.00;;;3.93;100.00
52927;BME280;40783;49.710;8.842;2023-02-12T04:19:33;101127.28;;;3.92;100.00
52927;BME280;40783;49.710;8.842;2023-02-12T04:26:58;101135.09;;;3.95;100.00
52927;BME280;40783;49.710;8.842;2023-02-12T04:32:01;101147.53;;;3.93;100.00
52927;BME280;40783;49.710;8.842;2023-02-12T04:34:32;101146.63;;;3.94;100.00
52927;BME280;40783;49.710;8.842;2023-02-12T04:37:01;101146.69;;;3.93;100.00
52927;BME280;40783;49.710;8.842;2023-02-12T04:39:28;101151.13;;;3.92;100.00
52927;BME280;40783;49.710;8.842;2023-02-12T04:42:00;101146.75;;;3.91;100.00
52927;BME280;40783;49.710;8.842;2023-02-12T04:44:26;101143.16;;;3.92;100.00
52927;BME280;40783;49.710;8.842;2023-02-12T04:46:52;101146.75;;;3.91;100.00
52927;BME280;40783;49.710;8.842;2023-02-12T04:49:19;101145.03;;;3.90;100.00
52927;BME280;40783;49.710;8.842;2023-02-12T04:51:45;101146.88;;;3.88;100.00
52927;BME280;40783;49.710;8.842;2023-02-12T04:54:11;101152.16;;;3.88;100.00
52927;BME280;40783;49.710;8.842;2023-02-12T04:56:36;101141.59;;;3.88;100.00
52927;BME280;40783;49.710;8.842;2023-02-12T04:59:02;101146.88;;;3.88;100.00
52927;BME280;40783;49.710;8.842;2023-02-12T05:01:29;101145.16;;;3.87;100.00
52927;BME280;40783;49.710;8.842;2023-02-12T05:03:54;101149.59;;;3.86;100.00
52927;BME280;40783;49.710;8.842;2023-02-12T05:06:20;101145.28;;;3.84;100.00
52927;BME280;40783;49.710;8.842;2023-02-12T05:08:45;101142.63;;;3.84;100.00
52927;BME280;40783;49.710;8.842;2023-02-12T05:11:15;101140.00;;;3.84;100.00
52927;BME280;40783;49.710;8.842;2023-02-12T05:13:40;101142.59;;;3.85;100.00
52927;BME280;40783;49.710;8.842;2023-02-12T05:16:06;101143.44;;;3.86;100.00
52927;BME280;40783;49.710;8.842;2023-02-12T05:18:32;101135.56;;;3.84;100.00
52927;BME280;40783;49.710;8.842;2023-02-12T05:21:01;101133.97;;;3.80;100.00
52927;BME280;40783;49.710;8.842;2023-02-12T05:23:27;101140.25;;;3.78;100.00
52927;BME280;40783;49.710;8.842;2023-02-12T05:25:53;101134.97;;;3.78;100.00
52927;BME280;40783;49.710;8.842;2023-02-12T05:28:21;101145.53;;;3.78;100.00
52927;BME280;40783;49.710;8.842;2023-02-12T05:30:46;101143.69;;;3.80;100.00
52927;BME280;40783;49.710;8.842;2023-02-12T05:33:11;101141.00;;;3.81;100.00
52927;BME280;40783;49.710;8.842;2023-02-12T05:35:36;101138.28;;;3.83;100.00
52927;BME280;40783;49.710;8.842;2023-02-12T05:38:01;101144.44;;;3.83;100.00
52927;BME280;40783;49.710;8.842;2023-02-12T05:40:27;101146.28;;;3.81;100.00
52927;BME280;40783;49.710;8.842;2023-02-12T05:42:52;101135.69;;;3.81;100.00
52927;BME280;40783;49.710;8.842;2023-02-12T05:45:17;101133.09;;;3.80;100.00
52927;BME280;40783;49.710;8.842;2023-02-12T05:47:42;101142.63;;;3.84;100.00
52927;BME280;40783;49.710;8.842;2023-02-12T05:50:07;101142.72;;;3.82;100.00
52927;BME280;40783;49.710;8.842;2023-02-12T05:52:33;101139.28;;;3.80;100.00
52927;BME280;40783;49.710;8.842;2023-02-12T05:55:00;101138.53;;;3.77;100.00
52927;BME280;40783;49.710;8.842;2023-02-12T05:57:26;101134.97;;;3.78;100.00
52927;BME280;40783;49.710;8.842;2023-02-12T05:59:53;101145.28;;;3.84;100.00
52927;BME280;40783;49.710;8.842;2023-02-12T06:02:21;101150.56;;;3.84;100.00
52927;BME280;40783;49.710;8.842;2023-02-12T06:04:48;101144.50;;;3.82;100.00
52927;BME280;40783;49.710;8.842;2023-02-12T06:07:13;101147.13;;;3.82;100.00
52927;BME280;40783;49.710;8.842;2023-02-12T06:09:39;101144.63;;;3.79;100.00
52927;BME280;40783;49.710;8.842;2023-02-12T06:12:04;101140.13;;;3.81;100.00
52927;BME280;40783;49.710;8.842;2023-02-12T06:14:29;101134.69;;;3.84;100.00
52927;BME280;40783;49.710;8.842;2023-02-12T06:16:57;101140.13;;;3.81;100.00
52927;BME280;40783;49.710;8.842;2023-02-12T06:19:22;101150.72;;;3.81;100.00
52927;BME280;40783;49.710;8.842;2023-02-12T06:21:48;101148.84;;;3.83;100.00
52927;BME280;40783;49.710;8.842;2023-02-12T06:24:14;101146.22;;;3.83;100.00
52927;BME280;40783;49.710;8.842;2023-02-12T06:26:39;101143.50;;;3.84;100.00
52927;BME280;40783;49.710;8.842;2023-02-12T06:29:07;101159.41;;;3.84;100.00
52927;BME280;40783;49.710;8.842;2023-02-12T06:31:33;101148.84;;;3.83;100.00
52927;BME280;40783;49.710;8.842;2023-02-12T06:34:05;101153.19;;;3.85;100.00
52927;BME280;40783;49.710;8.842;2023-02-12T06:36:31;101158.47;;;3.85;100.00
52927;BME280;40783;49.710;8.842;2023-02-12T06:39:01;101155.69;;;3.89;100.00
52927;BME280;40783;49.710;8.842;2023-02-12T06:41:27;101161.84;;;3.89;100.00
52927;BME280;40783;49.710;8.842;2023-02-12T06:43:52;101165.28;;;3.91;100.00
52927;BME280;40783;49.710;8.842;2023-02-12T06:46:19;101165.28;;;3.91;100.00
52927;BME280;40783;49.710;8.842;2023-02-12T06:48:44;101169.66;;;3.92;100.00
52927;BME280;40783;49.710;8.842;2023-02-12T06:51:11;101166.06;;;3.93;100.00
52927;BME280;40783;49.710;8.842;2023-02-12T06:53:36;101165.94;;;3.96;100.00
52927;BME280;40783;49.710;8.842;2023-02-12T06:56:02;101171.31;;;3.95;100.00
52927;BME280;40783;49.710;8.842;2023-02-12T06:58:30;101169.66;;;3.92;100.00
52927;BME280;40783;49.710;8.842;2023-02-12T07:00:55;101185.53;;;3.92;100.00
52927;BME280;40783;49.710;8.842;2023-02-12T07:03:21;101184.69;;;3.92;100.00
52927;BME280;40783;49.710;8.842;2023-02-12T07:05:46;101182.75;;;3.95;100.00
52927;BME280;40783;49.710;8.842;2023-02-12T07:08:12;101191.69;;;3.93;100.00
52927;BME280;40783;49.710;8.842;2023-02-12T07:10:40;101185.53;;;3.92;100.00
52927;BME280;40783;49.710;8.842;2023-02-12T07:13:05;101188.91;;;3.96;100.00
52927;BME280;40783;49.710;8.842;2023-02-12T07:15:30;101194.94;;;3.99;100.00
52927;BME280;40783;49.710;8.842;2023-02-12T07:17:55;101192.16;;;4.03;100.00
52927;BME280;40783;49.710;8.842;2023-02-12T07:20:21;101189.56;;;4.01;100.00
52927;BME280;40783;49.710;8.842;2023-02-12T07:22:46;101192.03;;;4.06;100.00
52927;BME280;40783;49.710;8.842;2023-02-12T07:25:13;101192.75;;;4.09;100.00
52927;BME280;40783;49.710;8.842;2023-02-12T07:27:41;101202.34;;;4.12;100.00
52927;BME280;40783;49.710;8.842;2023-02-12T07:30:06;101202.50;;;4.09;100.00
52927;BME280;40783;49.710;8.842;2023-02-12T07:32:34;101197.91;;;4.12;100.00
52927;BME280;40783;49.710;8.842;2023-02-12T07:34:59;101196.06;;;4.14;100.00
52927;BME280;40783;49.710;8.842;2023-02-12T07:37:25;101200.25;;;4.20;100.00
52927;BME280;40783;49.710;8.842;2023-02-12T07:39:52;101196.94;;;4.15;100.00
52927;BME280;40783;49.710;8.842;2023-02-12T07:42:17;101198.53;;;4.19;100.00
52927;BME280;40783;49.710;8.842;2023-02-12T07:44:45;101208.25;;;4.19;100.00
52927;BME280;40783;49.710;8.842;2023-02-12T07:47:10;101209.13;;;4.19;100.00
52927;BME280;40783;49.710;8.842;2023-02-12T07:49:35;101201.81;;;4.24;100.00
52927;BME280;40783;49.710;8.842;2023-02-12T07:52:03;101203.53;;;4.25;100.00
52927;BME280;40783;49.710;8.842;2023-02-12T07:54:28;101200.97;;;4.24;100.00
52927;BME280;40783;49.710;8.842;2023-02-12T07:56:58;101198.97;;;4.29;100.00
52927;BME280;40783;49.710;8.842;2023-02-12T07:59:24;101200.81;;;4.27;100.00
52927;BME280;40783;49.710;8.842;2023-02-12T08:01:51;101213.06;;;4.29;100.00
52927;BME280;40783;49.710;8.842;2023-02-12T08:04:17;101204.84;;;4.36;100.00
52927;BME280;40783;49.710;8.842;2023-02-12T08:06:44;101215.03;;;4.45;100.00
52927;BME280;40783;49.710;8.842;2023-02-12T08:09:11;101208.78;;;4.48;100.00
52927;BME280;40783;49.710;8.842;2023-02-12T08:11:36;101219.00;;;4.55;100.00
52927;BME280;40783;49.710;8.842;2023-02-12T08:14:02;101212.50;;;4.63;100.00
52927;BME280;40783;49.710;8.842;2023-02-12T08:16:28;101208.66;;;4.70;100.00
52927;BME280;40783;49.710;8.842;2023-02-12T08:18:56;101212.03;;;4.73;100.00
52927;BME280;40783;49.710;8.842;2023-02-12T08:21:27;101216.47;;;4.73;100.00
52927;BME280;40783;49.710;8.842;2023-02-12T08:23:53;101222.41;;;4.78;100.00
52927;BME280;40783;49.710;8.842;2023-02-12T08:28:47;101228.88;;;4.92;100.00
52927;BME280;40783;49.710;8.842;2023-02-12T08:31:14;101223.28;;;4.98;100.00
52927;BME280;40783;49.710;8.842;2023-02-12T08:33:44;101221.28;;;5.03;100.00
52927;BME280;40783;49.710;8.842;2023-02-12T08:36:11;101231.75;;;5.06;100.00
52927;BME280;40783;49.710;8.842;2023-02-12T08:38:37;101229.88;;;5.08;100.00
52927;BME280;40783;49.710;8.842;2023-02-12T08:41:08;101230.53;;;5.13;100.00
52927;BME280;40783;49.710;8.842;2023-02-12T08:43:34;101240.22;;;5.14;100.00
52927;BME280;40783;49.710;8.842;2023-02-12T08:48:27;101227.19;;;5.29;100.00
52927;BME280;40783;49.710;8.842;2023-02-12T08:50:52;101229.81;;;5.29;100.00
52927;BME280;40783;49.710;8.842;2023-02-12T08:53:18;101238.34;;;5.35;100.00
52927;BME280;40783;49.710;8.842;2023-02-12T08:55:49;101239.03;;;5.39;100.00
52927;BME280;40783;49.710;8.842;2023-02-12T08:58:14;101232.50;;;5.46;100.00
52927;BME280;40783;49.710;8.842;2023-02-12T09:00:42;101244.06;;;5.45;100.00
52927;BME280;40783;49.710;8.842;2023-02-12T09:03:07;101245.63;;;5.49;100.00
52927;BME280;40783;49.710;8.842;2023-02-12T09:05:32;101242.34;;;5.44;100.00
52927;BME280;40783;49.710;8.842;2023-02-12T09:07:59;101241.19;;;5.50;100.00
52927;BME280;40783;49.710;8.842;2023-02-12T09:10:25;101237.47;;;5.54;100.00
52927;BME280;40783;49.710;8.842;2023-02-12T09:12:50;101241.59;;;5.60;100.00
52927;BME280;40783;49.710;8.842;2023-02-12T09:15:15;101247.84;;;5.59;100.00
52927;BME280;40783;49.710;8.842;2023-02-12T09:17:40;101246.19;;;5.75;100.00
52927;BME280;40783;49.710;8.842;2023-02-12T09:20:07;101238.56;;;5.68;100.00
52927;BME280;40783;49.710;8.842;2023-02-12T09:22:35;101240.88;;;5.75;100.00
52927;BME280;40783;49.710;8.842;2023-02-12T09:25:03;101245.88;;;5.82;100.00
52927;BME280;40783;49.710;8.842;2023-02-12T09:27:28;101248.13;;;5.89;100.00
52927;BME280;40783;49.710;8.842;2023-02-12T09:29:53;101243.38;;;5.96;100.00
52927;BME280;40783;49.710;8.842;2023-02-12T09:32:18;101247.41;;;6.05;100.00
52927;BME280;40783;49.710;8.842;2023-02-12T09:34:44;101256.16;;;6.07;100.00
52927;BME280;40783;49.710;8.842;2023-02-12T09:37:09;101240.78;;;6.14;100.00
52927;BME280;40783;49.710;8.842;2023-02-12T09:39:34;101242.50;;;6.15;100.00
52927;BME280;40783;49.710;8.842;2023-02-12T09:49:53;101244.88;;;6.55;100.00
52927;BME280;40783;49.710;8.842;2023-02-12T09:52:24;101247.13;;;6.62;100.00
52927;BME280;40783;49.710;8.842;2023-02-12T09:54:50;101241.34;;;6.72;100.00
52927;BME280;40783;49.710;8.842;2023-02-12T09:57:18;101248.22;;;6.76;100.00
52927;BME280;40783;49.710;8.842;2023-02-12T09:59:50;101243.66;;;6.78;100.00
52927;BME280;40783;49.710;8.842;2023-02-12T10:02:19;101251.31;;;6.84;100.00
52927;BME280;40783;49.710;8.842;2023-02-12T10:04:48;101245.06;;;6.85;100.00
52927;BME280;40783;49.710;8.842;2023-02-12T10:12:35;101252.03;;;7.04;100.00
52927;BME280;40783;49.710;8.842;2023-02-12T10:27:59;101236.78;;;7.23;100.00
52927;BME280;40783;49.710;8.842;2023-02-12T10:33:11;101235.06;;;7.38;100.00
52927;BME280;40783;49.710;8.842;2023-02-12T10:35:41;101224.13;;;7.43;100.00
52927;BME280;40783;49.710;8.842;2023-02-12T10:38:13;101227.50;;;7.47;100.00
52927;BME280;40783;49.710;8.842;2023-02-12T10:40:43;101233.16;;;7.40;100.00
52927;BME280;40783;49.710;8.842;2023-02-12T10:43:11;101226.28;;;7.52;100.00
52927;BME280;40783;49.710;8.842;2023-02-12T10:45:40;101218.63;;;7.46;100.00
52927;BME280;40783;49.710;8.842;2023-02-12T10:48:13;101218.75;;;7.28;100.00
52927;BME280;40783;49.710;8.842;2023-02-12T10:50:51;101219.19;;;7.37;100.00
52927;BME280;40783;49.710;8.842;2023-02-12T10:53:22;101218.91;;;7.57;100.00
52927;BME280;40783;49.710;8.842;2023-02-12T10:56:03;101206.34;;;7.60;100.00
52927;BME280;40783;49.710;8.842;2023-02-12T10:58:33;101205.66;;;7.72;100.00
52927;BME280;40783;49.710;8.842;2023-02-12T11:00:58;101208.38;;;7.86;100.00
52927;BME280;40783;49.710;8.842;2023-02-12T11:06:18;101200.78;;;7.95;100.00
52927;BME280;40783;49.710;8.842;2023-02-12T11:08:49;101195.47;;;7.95;100.00
52927;BME280;40783;49.710;8.842;2023-02-12T11:11:36;101200.78;;;7.95;100.00
52927;BME280;40783;49.710;8.842;2023-02-12T11:14:03;101189.16;;;7.96;100.00
52927;BME280;40783;49.710;8.842;2023-02-12T11:16:31;101194.09;;;7.87;100.00
52927;BME280;40783;49.710;8.842;2023-02-12T11:19:01;101191.94;;;7.94;100.00
52927;BME280;40783;49.710;8.842;2023-02-12T11:21:26;101188.97;;;7.84;100.00
52927;BME280;40783;49.710;8.842;2023-02-12T11:23:52;101188.84;;;7.86;100.00
52927;BME280;40783;49.710;8.842;2023-02-12T11:28:53;101185.88;;;7.76;100.00
52927;BME280;40783;49.710;8.842;2023-02-12T11:31:22;101180.03;;;7.85;100.00
52927;BME280;40783;49.710;8.842;2023-02-12T11:36:32;101170.94;;;8.19;100.00
52927;BME280;40783;49.710;8.842;2023-02-12T11:38:59;101171.50;;;8.09;100.00
52927;BME280;40783;49.710;8.842;2023-02-12T11:43:53;101161.00;;;7.92;100.00
52927;BME280;40783;49.710;8.842;2023-02-12T11:46:22;101164.25;;;8.11;100.00
52927;BME280;40783;49.710;8.842;2023-02-12T11:48:48;101157.94;;;7.98;100.00
52927;BME280;40783;49.710;8.842;2023-02-12T11:51:17;101145.41;;;8.00;100.00
52927;BME280;40783;49.710;8.842;2023-02-12T11:53:46;101153.78;;;7.94;100.00
52927;BME280;40783;49.710;8.842;2023-02-12T11:56:14;101145.56;;;7.82;100.00
52927;BME280;40783;49.710;8.842;2023-02-12T11:58:40;101150.13;;;7.80;100.00
52927;BME280;40783;49.710;8.842;2023-02-12T12:01:28;101145.81;;;7.63;100.00
52927;BME280;40783;49.710;8.842;2023-02-12T12:16:49;101129.13;;;7.90;100.00
52927;BME280;40783;49.710;8.842;2023-02-12T12:19:42;101123.13;;;7.86;100.00
52927;BME280;40783;49.710;8.842;2023-02-12T12:22:23;101129.31;;;7.87;100.00
52927;BME280;40783;49.710;8.842;2023-02-12T12:24:55;101123.13;;;8.01;100.00
52927;BME280;40783;49.710;8.842;2023-02-12T12:30:13;101116.81;;;8.18;100.00
52927;BME280;40783;49.710;8.842;2023-02-12T12:32:41;101122.69;;;8.23;100.00
52927;BME280;40783;49.710;8.842;2023-02-12T12:35:10;101115.44;;;8.25;100.00
52927;BME280;40783;49.710;8.842;2023-02-12T12:38:20;101107.94;;;8.17;100.00
52927;BME280;40783;49.710;8.842;2023-02-12T12:40:41;101111.66;;;8.15;100.00
52927;BME280;40783;49.710;8.842;2023-02-12T12:43:11;101109.25;;;8.10;100.00
52927;BME280;40783;49.710;8.842;2023-02-12T12:53:41;101094.50;;;8.05;100.00
52927;BME280;40783;49.710;8.842;2023-02-12T13:03:50;101085.66;;;8.19;100.00
52927;BME280;40783;49.710;8.842;2023-02-12T13:14:02;101078.81;;;8.43;100.00
52927;BME280;40783;49.710;8.842;2023-02-12T13:16:32;101078.63;;;8.46;100.00
52927;BME280;40783;49.710;8.842;2023-02-12T13:21:39;101077.47;;;8.65;100.00
52927;BME280;40783;49.710;8.842;2023-02-12T13:26:55;101075.72;;;8.79;100.00
52927;BME280;40783;49.710;8.842;2023-02-12T13:31:51;101070.94;;;8.84;100.00
52927;BME280;40783;49.710;8.842;2023-02-12T13:34:18;101067.59;;;8.80;100.00
52927;BME280;40783;49.710;8.842;2023-02-12T13:36:44;101075.75;;;8.64;100.00
52927;BME280;40783;49.710;8.842;2023-02-12T13:39:14;101066.16;;;8.61;100.00
52927;BME280;40783;49.710;8.842;2023-02-12T13:41:43;101068.09;;;8.72;100.00
52927;BME280;40783;49.710;8.842;2023-02-12T13:52:04;101065.41;;;8.87;100.00
52927;BME280;40783;49.710;8.842;2023-02-12T13:54:46;101058.56;;;8.83;100.00
52927;BME280;40783;49.710;8.842;2023-02-12T13:57:15;101047.31;;;8.78;100.00
52927;BME280;40783;49.710;8.842;2023-02-12T13:59:44;101056.13;;;8.65;100.00
52927;BME280;40783;49.710;8.842;2023-02-12T14:07:20;101058.41;;;8.99;100.00
52927;BME280;40783;49.710;8.842;2023-02-12T14:14:40;101050.09;;;9.03;100.00
52927;BME280;40783;49.710;8.842;2023-02-12T14:37:57;101041.78;;;9.08;100.00
52927;BME280;40783;49.710;8.842;2023-02-12T14:42:57;101040.03;;;8.94;100.00
52927;BME280;40783;49.710;8.842;2023-02-12T14:45:32;101025.75;;;8.95;100.00
52927;BME280;40783;49.710;8.842;2023-02-12T14:47:57;101026.38;;;8.99;100.00
52927;BME280;40783;49.710;8.842;2023-02-12T14:50:40;101024.66;;;8.98;100.00
52927;BME280;40783;49.710;8.842;2023-02-12T14:53:31;101033.78;;;8.81;100.00
52927;BME280;40783;49.710;8.842;2023-02-12T14:55:55;101028.06;;;8.87;100.00
52927;BME280;40783;49.710;8.842;2023-02-12T14:58:23;101031.41;;;8.76;100.00
52927;BME280;40783;49.710;8.842;2023-02-12T15:00:50;101021.25;;;8.68;100.00
52927;BME280;40783;49.710;8.842;2023-02-12T15:03:21;101022.00;;;8.70;100.00
52927;BME280;40783;49.710;8.842;2023-02-12T15:10:45;101014.97;;;8.69;100.00
52927;BME280;40783;49.710;8.842;2023-02-12T15:13:18;101013.81;;;8.73;100.00
52927;BME280;40783;49.710;8.842;2023-02-12T15:15:52;101014.38;;;8.79;100.00
52927;BME280;40783;49.710;8.842;2023-02-12T15:18:21;101018.94;;;8.76;100.00
52927;BME280;40783;49.710;8.842;2023-02-12T15:25:57;101025.66;;;8.55;100.00
52927;BME280;40783;49.710;8.842;2023-02-12T15:28:25;101030.50;;;8.48;100.00
52927;BME280;40783;49.710;8.842;2023-02-12T15:30:51;101020.34;;;8.40;100.00
52927;BME280;40783;49.710;8.842;2023-02-12T15:33:26;101032.41;;;8.46;100.00
52927;BME280;40783;49.710;8.842;2023-02-12T15:35:51;101017.66;;;8.55;100.00
52927;BME280;40783;49.710;8.842;2023-02-12T15:38:25;101019.56;;;8.53;100.00
52927;BME280;40783;49.710;8.842;2023-02-12T15:41:21;101020.31;;;8.55;100.00
52927;BME280;40783;49.710;8.842;2023-02-12T15:43:53;101017.84;;;8.52;100.00
52927;BME280;40783;49.710;8.842;2023-02-12T15:46:28;101015.78;;;8.42;100.00
52927;BME280;40783;49.710;8.842;2023-02-12T15:51:58;101010.66;;;8.25;100.00
52927;BME280;40783;49.710;8.842;2023-02-12T15:54:26;101021.69;;;8.19;100.00
52927;BME280;40783;49.710;8.842;2023-02-12T15:57:12;101015.41;;;8.20;100.00
52927;BME280;40783;49.710;8.842;2023-02-12T16:03:01;101011.91;;;8.19;100.00
52927;BME280;40783;49.710;8.842;2023-02-12T16:05:27;101018.06;;;8.20;100.00
52927;BME280;40783;49.710;8.842;2023-02-12T16:07:58;101018.84;;;8.07;100.00
52927;BME280;40783;49.710;8.842;2023-02-12T16:10:25;101014.84;;;8.14;100.00
52927;BME280;40783;49.710;8.842;2023-02-12T16:16:02;101024.19;;;7.93;100.00
52927;BME280;40783;49.710;8.842;2023-02-12T16:18:31;101021.91;;;7.86;100.00